Lesley Pg — MXUG5 — position and weather

sailwx.info

Track history (hours):
 
Tides and Currents Weather Stations Pressure Air Temp Water Temp Dewpoint Dewpoint Depression Visibility Wind Speed Wind Dir Waves Ship Positions

Lesley Pg

Last reported at 2017-Apr-29 22:04 UTC. Time now 2017-Apr-30 18:36 UTC.
Position N 15°34' W 061°38'.

Length 102 m; draft 6.3 m.

Type: Tanker. MMSI: 234910000.

Date/timePositionNaut miles runAvg speedWind from/ knotsBaromVisibWave heightAir tempDewpointWater temp
2017-Apr-29 22:04N 15°34' W 061°38'111.2
2017-Apr-29 22:00N 15°35' W 061°39'6910.1
2017-Apr-29 15:09N 16°20' W 062°34'110.1
2017-Apr-29 15:00N 16°20' W 062°35'114 2.6
2017-Apr-27 18:42N 17°59' W 063°35'311.7
2017-Apr-27 18:29N 17°60' W 063°33'611.8
2017-Apr-27 17:57N 18°02' W 063°26'511.7
2017-Apr-27 17:30N 18°04' W 063°21'611.4
2017-Apr-27 17:00N 18°05' W 063°16'611.6
2017-Apr-27 16:30N 18°07' W 063°10'7 0.2
2017-Apr-26 11:10N 18°10' W 063°03'  
2017-Apr-23 11:43N 18°08' W 063°07'211.0
2017-Apr-23 11:30N 18°07' W 063°09'610.8
2017-Apr-23 10:59N 18°01' W 063°11'611.7
2017-Apr-23 10:28N 17°56' W 063°10'612.0
2017-Apr-23 09:59N 17°50' W 063°09'611.8
2017-Apr-23 09:27N 17°44' W 063°08'7311.3
2017-Apr-23 03:00N 16°38' W 062°34'511.2
2017-Apr-23 02:30N 16°34' W 062°31'611.3
2017-Apr-23 02:00N 16°29' W 062°29'  
Track history (hours):
 
Tides and Currents Weather Stations Pressure Air Temp Water Temp Dewpoint Dewpoint Depression Visibility Wind Speed Wind Dir Waves Ship Positions

Lesley Pg

Last reported at 2017-Apr-29 22:04 UTC. Time now 2017-Apr-30 18:36 UTC.
Position N 15°34' W 061°38'.

Length 102 m; draft 6.3 m.

Type: Tanker. MMSI: 234910000.

Date/timePositionNaut miles runAvg speedWind from/ knotsBaromVisibWave heightAir tempDewpointWater temp
2017-Apr-29 22:04N 15°34' W 061°38'111.2
2017-Apr-29 22:00N 15°35' W 061°39'6910.1
2017-Apr-29 15:09N 16°20' W 062°34'110.1
2017-Apr-29 15:00N 16°20' W 062°35'114 2.6
2017-Apr-27 18:42N 17°59' W 063°35'311.7
2017-Apr-27 18:29N 17°60' W 063°33'611.8
2017-Apr-27 17:57N 18°02' W 063°26'511.7
2017-Apr-27 17:30N 18°04' W 063°21'611.4
2017-Apr-27 17:00N 18°05' W 063°16'611.6
2017-Apr-27 16:30N 18°07' W 063°10'7 0.2
2017-Apr-26 11:10N 18°10' W 063°03'  
2017-Apr-23 11:43N 18°08' W 063°07'211.0
2017-Apr-23 11:30N 18°07' W 063°09'610.8
2017-Apr-23 10:59N 18°01' W 063°11'611.7
2017-Apr-23 10:28N 17°56' W 063°10'612.0
2017-Apr-23 09:59N 17°50' W 063°09'611.8
2017-Apr-23 09:27N 17°44' W 063°08'7311.3
2017-Apr-23 03:00N 16°38' W 062°34'511.2
2017-Apr-23 02:30N 16°34' W 062°31'611.3
2017-Apr-23 02:00N 16°29' W 062°29'  

Dump ship's entire track history